sensor_id;sensor_type;location;lat;lon;timestamp;P1;durP1;ratioP1;P2;durP2;ratioP2
72949;SDS011;64868;45.710;9.590;2024-01-15T00:04:52;52.50;;;26.30;;
72949;SDS011;64868;45.710;9.590;2024-01-15T00:12:49;45.83;;;26.70;;
72949;SDS011;64868;45.710;9.590;2024-01-15T00:15:14;46.10;;;25.58;;
72949;SDS011;64868;45.710;9.590;2024-01-15T00:17:42;43.90;;;24.85;;
72949;SDS011;64868;45.710;9.590;2024-01-15T00:20:14;46.75;;;26.08;;
72949;SDS011;64868;45.710;9.590;2024-01-15T00:22:41;43.47;;;24.05;;
72949;SDS011;64868;45.710;9.590;2024-01-15T00:25:08;44.15;;;26.05;;
72949;SDS011;64868;45.710;9.590;2024-01-15T00:27:40;41.20;;;24.83;;
72949;SDS011;64868;45.710;9.590;2024-01-15T00:30:06;44.60;;;24.50;;
72949;SDS011;64868;45.710;9.590;2024-01-15T00:32:39;43.60;;;23.00;;
72949;SDS011;64868;45.710;9.590;2024-01-15T00:35:23;45.10;;;24.70;;
72949;SDS011;64868;45.710;9.590;2024-01-15T00:37:50;44.70;;;25.48;;
72949;SDS011;64868;45.710;9.590;2024-01-15T00:40:16;42.67;;;24.35;;
72949;SDS011;64868;45.710;9.590;2024-01-15T00:42:49;39.97;;;22.85;;
72949;SDS011;64868;45.710;9.590;2024-01-15T00:45:23;43.38;;;24.58;;
72949;SDS011;64868;45.710;9.590;2024-01-15T00:47:51;44.10;;;24.02;;
72949;SDS011;64868;45.710;9.590;2024-01-15T00:50:29;44.45;;;25.25;;
72949;SDS011;64868;45.710;9.590;2024-01-15T00:53:01;41.42;;;24.92;;
72949;SDS011;64868;45.710;9.590;2024-01-15T00:55:28;43.20;;;24.90;;
72949;SDS011;64868;45.710;9.590;2024-01-15T00:57:55;45.92;;;24.90;;
72949;SDS011;64868;45.710;9.590;2024-01-15T01:00:21;43.75;;;25.88;;
72949;SDS011;64868;45.710;9.590;2024-01-15T01:02:48;47.90;;;26.95;;
72949;SDS011;64868;45.710;9.590;2024-01-15T01:05:13;45.53;;;27.30;;
72949;SDS011;64868;45.710;9.590;2024-01-15T01:07:38;44.75;;;25.55;;
72949;SDS011;64868;45.710;9.590;2024-01-15T01:10:05;49.70;;;26.88;;
72949;SDS011;64868;45.710;9.590;2024-01-15T01:12:31;43.72;;;25.80;;
72949;SDS011;64868;45.710;9.590;2024-01-15T01:15:05;44.22;;;23.75;;
72949;SDS011;64868;45.710;9.590;2024-01-15T01:25:55;43.33;;;24.95;;
72949;SDS011;64868;45.710;9.590;2024-01-15T01:28:23;45.85;;;25.52;;
72949;SDS011;64868;45.710;9.590;2024-01-15T01:31:07;47.08;;;25.23;;
72949;SDS011;64868;45.710;9.590;2024-01-15T01:33:33;46.42;;;27.05;;
72949;SDS011;64868;45.710;9.590;2024-01-15T01:41:30;43.80;;;24.73;;
72949;SDS011;64868;45.710;9.590;2024-01-15T01:43:56;41.53;;;24.20;;
72949;SDS011;64868;45.710;9.590;2024-01-15T01:49:06;43.80;;;23.70;;
72949;SDS011;64868;45.710;9.590;2024-01-15T01:51:40;41.55;;;23.27;;
72949;SDS011;64868;45.710;9.590;2024-01-15T01:57:09;41.67;;;23.48;;
72949;SDS011;64868;45.710;9.590;2024-01-15T02:05:40;43.63;;;23.50;;
72949;SDS011;64868;45.710;9.590;2024-01-15T02:10:54;42.83;;;24.25;;
72949;SDS011;64868;45.710;9.590;2024-01-15T02:13:29;42.40;;;23.73;;
72949;SDS011;64868;45.710;9.590;2024-01-15T02:16:01;40.75;;;22.95;;
72949;SDS011;64868;45.710;9.590;2024-01-15T02:21:30;43.47;;;22.23;;
72949;SDS011;64868;45.710;9.590;2024-01-15T02:29:34;45.83;;;23.23;;
72949;SDS011;64868;45.710;9.590;2024-01-15T02:32:07;40.25;;;22.42;;
72949;SDS011;64868;45.710;9.590;2024-01-15T02:34:34;40.13;;;23.38;;
72949;SDS011;64868;45.710;9.590;2024-01-15T02:37:13;47.78;;;27.80;;
72949;SDS011;64868;45.710;9.590;2024-01-15T02:39:40;42.83;;;23.63;;
72949;SDS011;64868;45.710;9.590;2024-01-15T02:47:55;43.72;;;23.77;;
72949;SDS011;64868;45.710;9.590;2024-01-15T02:50:22;43.35;;;24.10;;
72949;SDS011;64868;45.710;9.590;2024-01-15T02:52:53;44.70;;;25.05;;
72949;SDS011;64868;45.710;9.590;2024-01-15T02:55:23;39.83;;;23.92;;
72949;SDS011;64868;45.710;9.590;2024-01-15T02:57:59;40.25;;;23.15;;
72949;SDS011;64868;45.710;9.590;2024-01-15T03:00:32;43.30;;;24.92;;
72949;SDS011;64868;45.710;9.590;2024-01-15T03:05:50;41.38;;;23.77;;
72949;SDS011;64868;45.710;9.590;2024-01-15T03:16:46;40.65;;;23.35;;
72949;SDS011;64868;45.710;9.590;2024-01-15T03:22:16;41.70;;;23.15;;
72949;SDS011;64868;45.710;9.590;2024-01-15T03:24:54;39.30;;;22.85;;
72949;SDS011;64868;45.710;9.590;2024-01-15T03:27:19;41.38;;;23.50;;
72949;SDS011;64868;45.710;9.590;2024-01-15T03:29:47;42.75;;;22.02;;
72949;SDS011;64868;45.710;9.590;2024-01-15T03:34:46;38.28;;;22.30;;
72949;SDS011;64868;45.710;9.590;2024-01-15T03:40:16;38.15;;;20.77;;
72949;SDS011;64868;45.710;9.590;2024-01-15T03:42:57;38.28;;;22.45;;
72949;SDS011;64868;45.710;9.590;2024-01-15T03:48:14;37.90;;;20.88;;
72949;SDS011;64868;45.710;9.590;2024-01-15T03:53:28;40.40;;;21.95;;
72949;SDS011;64868;45.710;9.590;2024-01-15T03:55:55;38.65;;;21.20;;
72949;SDS011;64868;45.710;9.590;2024-01-15T03:58:21;39.03;;;20.73;;
72949;SDS011;64868;45.710;9.590;2024-01-15T04:00:55;38.05;;;21.23;;
72949;SDS011;64868;45.710;9.590;2024-01-15T04:09:33;34.83;;;19.85;;
72949;SDS011;64868;45.710;9.590;2024-01-15T04:14:50;36.42;;;20.52;;
72949;SDS011;64868;45.710;9.590;2024-01-15T04:17:17;35.80;;;19.58;;
72949;SDS011;64868;45.710;9.590;2024-01-15T04:22:52;40.22;;;21.85;;
72949;SDS011;64868;45.710;9.590;2024-01-15T04:39:38;36.58;;;19.48;;
72949;SDS011;64868;45.710;9.590;2024-01-15T04:44:59;36.40;;;19.88;;
72949;SDS011;64868;45.710;9.590;2024-01-15T04:53:04;38.65;;;21.55;;
72949;SDS011;64868;45.710;9.590;2024-01-15T04:55:32;36.22;;;18.42;;
72949;SDS011;64868;45.710;9.590;2024-01-15T05:09:37;32.13;;;17.50;;
72949;SDS011;64868;45.710;9.590;2024-01-15T05:15:10;28.80;;;17.92;;
72949;SDS011;64868;45.710;9.590;2024-01-15T05:23:19;32.15;;;18.00;;
72949;SDS011;64868;45.710;9.590;2024-01-15T05:25:50;31.58;;;16.98;;
72949;SDS011;64868;45.710;9.590;2024-01-15T05:36:50;27.98;;;15.75;;
72949;SDS011;64868;45.710;9.590;2024-01-15T05:39:25;30.23;;;16.55;;
72949;SDS011;64868;45.710;9.590;2024-01-15T05:41:57;26.88;;;14.90;;
72949;SDS011;64868;45.710;9.590;2024-01-15T05:44:33;29.15;;;16.17;;
72949;SDS011;64868;45.710;9.590;2024-01-15T05:46:58;29.92;;;16.23;;
72949;SDS011;64868;45.710;9.590;2024-01-15T05:49:25;29.88;;;16.48;;
72949;SDS011;64868;45.710;9.590;2024-01-15T05:51:51;30.15;;;16.83;;
72949;SDS011;64868;45.710;9.590;2024-01-15T05:54:18;32.97;;;18.40;;
72949;SDS011;64868;45.710;9.590;2024-01-15T05:56:44;33.45;;;18.27;;
72949;SDS011;64868;45.710;9.590;2024-01-15T05:59:10;32.08;;;16.85;;
72949;SDS011;64868;45.710;9.590;2024-01-15T06:01:35;30.70;;;15.88;;
72949;SDS011;64868;45.710;9.590;2024-01-15T06:04:00;31.10;;;16.73;;
72949;SDS011;64868;45.710;9.590;2024-01-15T06:06:32;27.05;;;15.35;;
72949;SDS011;64868;45.710;9.590;2024-01-15T06:08:57;29.08;;;16.80;;
72949;SDS011;64868;45.710;9.590;2024-01-15T06:11:30;37.60;;;17.05;;
72949;SDS011;64868;45.710;9.590;2024-01-15T06:13:56;31.05;;;16.05;;
72949;SDS011;64868;45.710;9.590;2024-01-15T06:16:22;29.42;;;15.82;;
72949;SDS011;64868;45.710;9.590;2024-01-15T06:18:48;25.00;;;14.52;;
72949;SDS011;64868;45.710;9.590;2024-01-15T06:21:14;24.75;;;15.18;;
72949;SDS011;64868;45.710;9.590;2024-01-15T06:23:40;26.02;;;14.10;;
72949;SDS011;64868;45.710;9.590;2024-01-15T06:26:07;25.00;;;14.98;;
72949;SDS011;64868;45.710;9.590;2024-01-15T06:28:38;26.63;;;14.15;;
72949;SDS011;64868;45.710;9.590;2024-01-15T06:31:06;25.48;;;13.77;;
72949;SDS011;64868;45.710;9.590;2024-01-15T06:33:31;27.27;;;14.38;;
72949;SDS011;64868;45.710;9.590;2024-01-15T06:35:58;29.13;;;14.90;;
72949;SDS011;64868;45.710;9.590;2024-01-15T06:38:23;28.73;;;15.77;;
72949;SDS011;64868;45.710;9.590;2024-01-15T06:40:51;28.42;;;15.35;;
72949;SDS011;64868;45.710;9.590;2024-01-15T06:43:17;29.75;;;15.63;;
72949;SDS011;64868;45.710;9.590;2024-01-15T06:45:48;29.25;;;15.80;;
72949;SDS011;64868;45.710;9.590;2024-01-15T06:48:15;28.13;;;16.10;;
72949;SDS011;64868;45.710;9.590;2024-01-15T06:50:59;34.90;;;16.13;;
72949;SDS011;64868;45.710;9.590;2024-01-15T06:53:25;31.88;;;17.23;;
72949;SDS011;64868;45.710;9.590;2024-01-15T06:55:57;31.75;;;17.45;;
72949;SDS011;64868;45.710;9.590;2024-01-15T06:58:23;32.47;;;16.67;;
72949;SDS011;64868;45.710;9.590;2024-01-15T07:00:49;34.20;;;17.70;;
72949;SDS011;64868;45.710;9.590;2024-01-15T07:06:13;24.38;;;13.63;;
72949;SDS011;64868;45.710;9.590;2024-01-15T07:08:39;22.45;;;12.15;;
72949;SDS011;64868;45.710;9.590;2024-01-15T07:11:06;31.27;;;13.82;;
72949;SDS011;64868;45.710;9.590;2024-01-15T07:19:34;32.78;;;13.77;;
72949;SDS011;64868;45.710;9.590;2024-01-15T07:24:48;24.27;;;12.50;;
72949;SDS011;64868;45.710;9.590;2024-01-15T07:27:16;26.35;;;12.95;;
72949;SDS011;64868;45.710;9.590;2024-01-15T07:35:32;26.35;;;14.40;;
72949;SDS011;64868;45.710;9.590;2024-01-15T07:38:11;26.13;;;13.30;;
72949;SDS011;64868;45.710;9.590;2024-01-15T07:40:37;25.23;;;13.02;;
72949;SDS011;64868;45.710;9.590;2024-01-15T07:43:09;19.38;;;10.20;;
72949;SDS011;64868;45.710;9.590;2024-01-15T07:45:35;24.10;;;12.93;;
72949;SDS011;64868;45.710;9.590;2024-01-15T07:48:00;22.52;;;11.98;;
72949;SDS011;64868;45.710;9.590;2024-01-15T07:50:27;22.85;;;11.95;;
72949;SDS011;64868;45.710;9.590;2024-01-15T07:52:52;24.20;;;12.85;;
72949;SDS011;64868;45.710;9.590;2024-01-15T07:55:22;21.95;;;12.57;;
72949;SDS011;64868;45.710;9.590;2024-01-15T07:57:48;28.17;;;12.48;;
72949;SDS011;64868;45.710;9.590;2024-01-15T08:00:21;22.13;;;12.32;;
72949;SDS011;64868;45.710;9.590;2024-01-15T08:02:48;25.02;;;11.98;;
72949;SDS011;64868;45.710;9.590;2024-01-15T08:13:44;23.98;;;12.80;;
72949;SDS011;64868;45.710;9.590;2024-01-15T08:16:17;26.65;;;12.57;;
72949;SDS011;64868;45.710;9.590;2024-01-15T08:18:47;22.70;;;12.50;;
72949;SDS011;64868;45.710;9.590;2024-01-15T08:21:15;27.10;;;14.13;;
72949;SDS011;64868;45.710;9.590;2024-01-15T08:23:41;27.30;;;14.40;;
72949;SDS011;64868;45.710;9.590;2024-01-15T08:26:07;24.08;;;13.63;;
72949;SDS011;64868;45.710;9.590;2024-01-15T08:28:35;27.63;;;14.68;;
72949;SDS011;64868;45.710;9.590;2024-01-15T08:31:00;32.42;;;15.77;;
72949;SDS011;64868;45.710;9.590;2024-01-15T08:33:26;29.98;;;14.43;;
72949;SDS011;64868;45.710;9.590;2024-01-15T08:35:59;27.83;;;14.55;;
72949;SDS011;64868;45.710;9.590;2024-01-15T08:38:26;25.08;;;13.98;;
72949;SDS011;64868;45.710;9.590;2024-01-15T08:40:51;19.83;;;11.18;;
72949;SDS011;64868;45.710;9.590;2024-01-15T08:43:18;22.48;;;10.30;;
72949;SDS011;64868;45.710;9.590;2024-01-15T08:45:44;19.48;;;9.90;;
72949;SDS011;64868;45.710;9.590;2024-01-15T08:48:18;20.30;;;10.38;;
72949;SDS011;64868;45.710;9.590;2024-01-15T08:53:35;18.42;;;8.50;;
72949;SDS011;64868;45.710;9.590;2024-01-15T09:01:40;16.00;;;8.43;;
72949;SDS011;64868;45.710;9.590;2024-01-15T09:04:24;16.70;;;8.20;;
72949;SDS011;64868;45.710;9.590;2024-01-15T09:06:49;18.92;;;9.32;;
72949;SDS011;64868;45.710;9.590;2024-01-15T09:09:17;16.75;;;9.40;;
72949;SDS011;64868;45.710;9.590;2024-01-15T09:20:32;18.58;;;11.15;;
72949;SDS011;64868;45.710;9.590;2024-01-15T09:23:04;17.88;;;10.98;;
72949;SDS011;64868;45.710;9.590;2024-01-15T09:25:36;20.70;;;11.73;;
72949;SDS011;64868;45.710;9.590;2024-01-15T09:28:01;20.27;;;12.63;;
72949;SDS011;64868;45.710;9.590;2024-01-15T09:30:27;21.90;;;13.32;;
72949;SDS011;64868;45.710;9.590;2024-01-15T09:41:22;18.58;;;13.32;;
72949;SDS011;64868;45.710;9.590;2024-01-15T09:43:58;20.23;;;13.48;;
72949;SDS011;64868;45.710;9.590;2024-01-15T09:46:24;23.80;;;15.63;;
72949;SDS011;64868;45.710;9.590;2024-01-15T09:51:35;27.20;;;17.83;;
72949;SDS011;64868;45.710;9.590;2024-01-15T09:54:02;27.52;;;19.45;;
72949;SDS011;64868;45.710;9.590;2024-01-15T09:56:35;30.90;;;20.60;;
72949;SDS011;64868;45.710;9.590;2024-01-15T09:59:18;29.08;;;19.98;;
72949;SDS011;64868;45.710;9.590;2024-01-15T10:08:05;37.78;;;25.95;;
72949;SDS011;64868;45.710;9.590;2024-01-15T10:10:37;34.47;;;25.55;;
72949;SDS011;64868;45.710;9.590;2024-01-15T10:13:15;36.70;;;25.85;;
72949;SDS011;64868;45.710;9.590;2024-01-15T10:15:41;36.35;;;26.75;;
72949;SDS011;64868;45.710;9.590;2024-01-15T10:18:12;37.05;;;26.98;;
72949;SDS011;64868;45.710;9.590;2024-01-15T10:23:59;34.95;;;26.85;;
72949;SDS011;64868;45.710;9.590;2024-01-15T10:26:27;38.75;;;27.33;;
72949;SDS011;64868;45.710;9.590;2024-01-15T10:28:59;34.72;;;26.25;;
72949;SDS011;64868;45.710;9.590;2024-01-15T10:31:25;34.28;;;26.55;;
72949;SDS011;64868;45.710;9.590;2024-01-15T10:36:53;34.17;;;26.05;;
72949;SDS011;64868;45.710;9.590;2024-01-15T10:39:29;54.05;;;26.95;;
72949;SDS011;64868;45.710;9.590;2024-01-15T10:41:57;34.20;;;23.83;;
72949;SDS011;64868;45.710;9.590;2024-01-15T10:44:25;29.77;;;21.88;;
72949;SDS011;64868;45.710;9.590;2024-01-15T10:52:57;34.00;;;26.45;;
72949;SDS011;64868;45.710;9.590;2024-01-15T10:55:29;37.38;;;26.88;;
72949;SDS011;64868;45.710;9.590;2024-01-15T10:58:07;33.33;;;26.15;;
72949;SDS011;64868;45.710;9.590;2024-01-15T11:00:33;38.15;;;28.38;;
72949;SDS011;64868;45.710;9.590;2024-01-15T11:05:59;33.38;;;27.42;;
72949;SDS011;64868;45.710;9.590;2024-01-15T11:11:21;35.20;;;26.67;;
72949;SDS011;64868;45.710;9.590;2024-01-15T11:19:38;32.78;;;26.83;;
72949;SDS011;64868;45.710;9.590;2024-01-15T11:30:41;36.83;;;27.95;;
72949;SDS011;64868;45.710;9.590;2024-01-15T11:33:07;33.53;;;27.13;;
72949;SDS011;64868;45.710;9.590;2024-01-15T11:36:00;33.33;;;25.17;;
72949;SDS011;64868;45.710;9.590;2024-01-15T11:38:27;32.47;;;26.63;;
72949;SDS011;64868;45.710;9.590;2024-01-15T11:46:41;36.72;;;27.75;;
72949;SDS011;64868;45.710;9.590;2024-01-15T11:52:15;36.20;;;27.98;;
72949;SDS011;64868;45.710;9.590;2024-01-15T11:55:01;36.33;;;27.77;;
72949;SDS011;64868;45.710;9.590;2024-01-15T11:57:33;40.55;;;27.42;;
72949;SDS011;64868;45.710;9.590;2024-01-15T12:14:56;40.08;;;25.67;;
72949;SDS011;64868;45.710;9.590;2024-01-15T12:17:44;40.13;;;25.92;;
72949;SDS011;64868;45.710;9.590;2024-01-15T12:23:31;37.78;;;23.92;;
72949;SDS011;64868;45.710;9.590;2024-01-15T12:29:25;38.75;;;23.98;;
72949;SDS011;64868;45.710;9.590;2024-01-15T12:32:04;37.15;;;24.25;;
72949;SDS011;64868;45.710;9.590;2024-01-15T12:34:33;42.38;;;27.45;;
72949;SDS011;64868;45.710;9.590;2024-01-15T12:37:10;40.47;;;25.90;;
72949;SDS011;64868;45.710;9.590;2024-01-15T12:39:38;51.05;;;30.00;;
72949;SDS011;64868;45.710;9.590;2024-01-15T12:45:28;48.63;;;30.25;;
72949;SDS011;64868;45.710;9.590;2024-01-15T12:53:56;43.42;;;27.38;;
72949;SDS011;64868;45.710;9.590;2024-01-15T12:56:23;43.85;;;27.00;;
72949;SDS011;64868;45.710;9.590;2024-01-15T13:01:43;42.10;;;27.23;;
72949;SDS011;64868;45.710;9.590;2024-01-15T13:04:10;45.00;;;29.38;;
72949;SDS011;64868;45.710;9.590;2024-01-15T13:06:43;42.10;;;27.92;;
72949;SDS011;64868;45.710;9.590;2024-01-15T13:11:53;43.35;;;26.77;;
72949;SDS011;64868;45.710;9.590;2024-01-15T13:14:24;47.28;;;28.63;;
72949;SDS011;64868;45.710;9.590;2024-01-15T13:17:01;41.40;;;29.00;;
72949;SDS011;64868;45.710;9.590;2024-01-15T13:19:41;41.58;;;27.65;;
72949;SDS011;64868;45.710;9.590;2024-01-15T13:22:10;44.60;;;28.42;;
72949;SDS011;64868;45.710;9.590;2024-01-15T13:24:39;42.38;;;25.30;;
72949;SDS011;64868;45.710;9.590;2024-01-15T13:27:04;43.38;;;25.38;;
72949;SDS011;64868;45.710;9.590;2024-01-15T13:29:41;41.25;;;25.90;;
72949;SDS011;64868;45.710;9.590;2024-01-15T13:32:08;38.53;;;22.40;;
72949;SDS011;64868;45.710;9.590;2024-01-15T13:37:14;40.85;;;26.08;;
72949;SDS011;64868;45.710;9.590;2024-01-15T13:39:40;41.92;;;24.85;;
72949;SDS011;64868;45.710;9.590;2024-01-15T13:42:12;39.45;;;24.50;;
72949;SDS011;64868;45.710;9.590;2024-01-15T13:44:48;37.97;;;23.40;;
72949;SDS011;64868;45.710;9.590;2024-01-15T13:47:20;37.72;;;24.40;;
72949;SDS011;64868;45.710;9.590;2024-01-15T13:49:49;38.28;;;24.08;;
72949;SDS011;64868;45.710;9.590;2024-01-15T13:52:16;38.42;;;24.35;;
72949;SDS011;64868;45.710;9.590;2024-01-15T13:54:57;37.92;;;24.15;;
72949;SDS011;64868;45.710;9.590;2024-01-15T13:57:28;36.67;;;23.48;;
72949;SDS011;64868;45.710;9.590;2024-01-15T13:59:56;35.13;;;22.33;;
72949;SDS011;64868;45.710;9.590;2024-01-15T14:02:22;34.70;;;22.00;;
72949;SDS011;64868;45.710;9.590;2024-01-15T14:04:48;36.40;;;20.70;;
72949;SDS011;64868;45.710;9.590;2024-01-15T14:07:29;38.42;;;23.27;;
72949;SDS011;64868;45.710;9.590;2024-01-15T14:09:54;31.55;;;19.80;;
72949;SDS011;64868;45.710;9.590;2024-01-15T14:12:22;24.25;;;16.30;;
72949;SDS011;64868;45.710;9.590;2024-01-15T14:14:51;24.35;;;13.98;;
72949;SDS011;64868;45.710;9.590;2024-01-15T14:17:19;23.42;;;12.77;;
72949;SDS011;64868;45.710;9.590;2024-01-15T14:19:47;21.65;;;13.73;;
72949;SDS011;64868;45.710;9.590;2024-01-15T14:22:15;22.90;;;13.70;;
72949;SDS011;64868;45.710;9.590;2024-01-15T14:24:40;22.30;;;13.05;;
72949;SDS011;64868;45.710;9.590;2024-01-15T14:27:06;28.52;;;16.20;;
72949;SDS011;64868;45.710;9.590;2024-01-15T14:29:32;27.88;;;16.48;;
72949;SDS011;64868;45.710;9.590;2024-01-15T14:31:57;25.42;;;15.25;;
72949;SDS011;64868;45.710;9.590;2024-01-15T14:34:30;21.52;;;14.45;;
72949;SDS011;64868;45.710;9.590;2024-01-15T14:36:57;20.90;;;12.60;;
72949;SDS011;64868;45.710;9.590;2024-01-15T14:39:25;23.25;;;14.30;;
72949;SDS011;64868;45.710;9.590;2024-01-15T14:41:53;25.80;;;13.65;;
72949;SDS011;64868;45.710;9.590;2024-01-15T14:47:21;18.48;;;11.38;;
72949;SDS011;64868;45.710;9.590;2024-01-15T14:52:32;21.60;;;13.43;;
72949;SDS011;64868;45.710;9.590;2024-01-15T14:55:05;20.30;;;12.52;;
72949;SDS011;64868;45.710;9.590;2024-01-15T14:57:30;24.80;;;14.75;;
72949;SDS011;64868;45.710;9.590;2024-01-15T14:59:56;31.60;;;18.20;;
72949;SDS011;64868;45.710;9.590;2024-01-15T15:02:22;22.88;;;13.77;;
72949;SDS011;64868;45.710;9.590;2024-01-15T15:04:48;25.38;;;14.57;;
72949;SDS011;64868;45.710;9.590;2024-01-15T15:07:15;24.02;;;13.77;;
72949;SDS011;64868;45.710;9.590;2024-01-15T15:09:41;23.85;;;13.15;;
72949;SDS011;64868;45.710;9.590;2024-01-15T15:12:08;16.90;;;10.43;;
72949;SDS011;64868;45.710;9.590;2024-01-15T15:14:36;22.80;;;13.18;;
72949;SDS011;64868;45.710;9.590;2024-01-15T15:17:17;19.02;;;10.23;;
72949;SDS011;64868;45.710;9.590;2024-01-15T15:19:43;17.00;;;9.38;;
72949;SDS011;64868;45.710;9.590;2024-01-15T15:27:57;16.67;;;9.15;;
72949;SDS011;64868;45.710;9.590;2024-01-15T15:30:29;16.45;;;9.48;;
72949;SDS011;64868;45.710;9.590;2024-01-15T15:33:01;18.38;;;10.18;;
72949;SDS011;64868;45.710;9.590;2024-01-15T15:35:34;19.63;;;10.75;;
72949;SDS011;64868;45.710;9.590;2024-01-15T15:46:43;20.25;;;10.38;;
72949;SDS011;64868;45.710;9.590;2024-01-15T15:49:09;17.77;;;10.40;;
72949;SDS011;64868;45.710;9.590;2024-01-15T15:51:35;25.85;;;11.30;;
72949;SDS011;64868;45.710;9.590;2024-01-15T15:56:40;23.80;;;12.77;;
72949;SDS011;64868;45.710;9.590;2024-01-15T16:01:54;24.17;;;13.63;;
72949;SDS011;64868;45.710;9.590;2024-01-15T16:04:22;20.48;;;11.35;;
72949;SDS011;64868;45.710;9.590;2024-01-15T16:09:57;19.40;;;12.30;;
72949;SDS011;64868;45.710;9.590;2024-01-15T16:12:41;18.77;;;12.05;;
72949;SDS011;64868;45.710;9.590;2024-01-15T16:20:55;24.92;;;12.13;;
72949;SDS011;64868;45.710;9.590;2024-01-15T16:23:27;30.52;;;15.52;;
72949;SDS011;64868;45.710;9.590;2024-01-15T16:26:01;27.15;;;14.13;;
72949;SDS011;64868;45.710;9.590;2024-01-15T16:28:27;28.55;;;15.05;;
72949;SDS011;64868;45.710;9.590;2024-01-15T16:33:55;29.92;;;15.48;;
72949;SDS011;64868;45.710;9.590;2024-01-15T16:36:34;30.67;;;15.88;;
72949;SDS011;64868;45.710;9.590;2024-01-15T16:39:11;29.38;;;15.63;;
72949;SDS011;64868;45.710;9.590;2024-01-15T16:41:49;28.52;;;15.10;;
72949;SDS011;64868;45.710;9.590;2024-01-15T16:44:21;31.30;;;16.05;;
72949;SDS011;64868;45.710;9.590;2024-01-15T16:49:56;29.50;;;16.17;;
72949;SDS011;64868;45.710;9.590;2024-01-15T16:55:29;31.05;;;15.82;;
72949;SDS011;64868;45.710;9.590;2024-01-15T16:57:54;26.58;;;16.33;;
72949;SDS011;64868;45.710;9.590;2024-01-15T17:06:25;26.88;;;15.90;;
72949;SDS011;64868;45.710;9.590;2024-01-15T17:08:53;28.65;;;17.55;;
72949;SDS011;64868;45.710;9.590;2024-01-15T17:11:33;28.27;;;16.83;;
72949;SDS011;64868;45.710;9.590;2024-01-15T17:19:54;31.35;;;16.17;;
72949;SDS011;64868;45.710;9.590;2024-01-15T17:25:22;28.25;;;15.73;;
72949;SDS011;64868;45.710;9.590;2024-01-15T17:27:54;29.17;;;15.15;;
72949;SDS011;64868;45.710;9.590;2024-01-15T17:30:22;28.35;;;16.02;;
72949;SDS011;64868;45.710;9.590;2024-01-15T17:32:48;29.20;;;15.98;;
72949;SDS011;64868;45.710;9.590;2024-01-15T17:35:14;28.92;;;16.52;;
72949;SDS011;64868;45.710;9.590;2024-01-15T17:37:42;28.17;;;16.60;;
72949;SDS011;64868;45.710;9.590;2024-01-15T17:40:09;32.35;;;16.35;;
72949;SDS011;64868;45.710;9.590;2024-01-15T17:42:38;30.90;;;17.25;;
72949;SDS011;64868;45.710;9.590;2024-01-15T17:45:05;28.48;;;16.80;;
72949;SDS011;64868;45.710;9.590;2024-01-15T17:47:32;28.85;;;16.90;;
72949;SDS011;64868;45.710;9.590;2024-01-15T17:52:49;28.98;;;17.45;;
72949;SDS011;64868;45.710;9.590;2024-01-15T17:55:15;30.30;;;17.60;;
72949;SDS011;64868;45.710;9.590;2024-01-15T17:57:41;31.17;;;16.88;;
72949;SDS011;64868;45.710;9.590;2024-01-15T18:00:09;34.08;;;17.15;;
72949;SDS011;64868;45.710;9.590;2024-01-15T18:02:35;31.55;;;18.52;;
72949;SDS011;64868;45.710;9.590;2024-01-15T18:05:14;34.65;;;18.58;;
72949;SDS011;64868;45.710;9.590;2024-01-15T18:10:36;28.52;;;16.92;;
72949;SDS011;64868;45.710;9.590;2024-01-15T18:13:07;27.50;;;14.50;;
72949;SDS011;64868;45.710;9.590;2024-01-15T18:21:19;31.35;;;17.52;;
72949;SDS011;64868;45.710;9.590;2024-01-15T18:23:46;30.77;;;17.02;;
72949;SDS011;64868;45.710;9.590;2024-01-15T18:26:15;26.23;;;14.82;;
72949;SDS011;64868;45.710;9.590;2024-01-15T18:31:44;25.15;;;15.27;;
72949;SDS011;64868;45.710;9.590;2024-01-15T18:34:10;29.45;;;16.45;;
72949;SDS011;64868;45.710;9.590;2024-01-15T18:36:45;30.98;;;16.25;;
72949;SDS011;64868;45.710;9.590;2024-01-15T18:44:56;30.13;;;16.13;;
72949;SDS011;64868;45.710;9.590;2024-01-15T18:50:25;28.85;;;16.05;;
72949;SDS011;64868;45.710;9.590;2024-01-15T18:52:55;23.30;;;13.18;;
72949;SDS011;64868;45.710;9.590;2024-01-15T18:55:20;26.38;;;14.73;;
72949;SDS011;64868;45.710;9.590;2024-01-15T18:57:46;26.20;;;15.25;;
72949;SDS011;64868;45.710;9.590;2024-01-15T19:00:13;26.67;;;15.20;;
72949;SDS011;64868;45.710;9.590;2024-01-15T19:02:44;30.42;;;15.40;;
72949;SDS011;64868;45.710;9.590;2024-01-15T19:05:16;25.60;;;13.27;;
72949;SDS011;64868;45.710;9.590;2024-01-15T19:10:51;24.60;;;13.40;;
72949;SDS011;64868;45.710;9.590;2024-01-15T19:13:23;22.52;;;13.15;;
72949;SDS011;64868;45.710;9.590;2024-01-15T19:15:49;23.48;;;14.05;;
72949;SDS011;64868;45.710;9.590;2024-01-15T19:18:16;25.95;;;14.25;;
72949;SDS011;64868;45.710;9.590;2024-01-15T19:23:52;28.02;;;14.55;;
72949;SDS011;64868;45.710;9.590;2024-01-15T19:29:23;25.20;;;15.50;;
72949;SDS011;64868;45.710;9.590;2024-01-15T19:37:59;30.35;;;16.95;;
72949;SDS011;64868;45.710;9.590;2024-01-15T19:48:36;30.42;;;16.25;;
72949;SDS011;64868;45.710;9.590;2024-01-15T19:51:17;31.85;;;17.80;;
72949;SDS011;64868;45.710;9.590;2024-01-15T19:53:45;26.75;;;14.77;;
72949;SDS011;64868;45.710;9.590;2024-01-15T19:56:12;26.48;;;16.58;;
72949;SDS011;64868;45.710;9.590;2024-01-15T19:58:52;28.13;;;15.30;;
72949;SDS011;64868;45.710;9.590;2024-01-15T20:01:32;26.90;;;15.00;;
72949;SDS011;64868;45.710;9.590;2024-01-15T20:03:59;27.60;;;14.02;;
72949;SDS011;64868;45.710;9.590;2024-01-15T20:06:33;26.70;;;14.98;;
72949;SDS011;64868;45.710;9.590;2024-01-15T20:09:02;27.95;;;15.27;;
72949;SDS011;64868;45.710;9.590;2024-01-15T20:11:34;26.00;;;14.65;;
72949;SDS011;64868;45.710;9.590;2024-01-15T20:14:00;28.75;;;14.13;;
72949;SDS011;64868;45.710;9.590;2024-01-15T20:16:36;28.83;;;16.27;;
72949;SDS011;64868;45.710;9.590;2024-01-15T20:19:04;25.52;;;14.68;;
72949;SDS011;64868;45.710;9.590;2024-01-15T20:21:46;28.50;;;16.10;;
72949;SDS011;64868;45.710;9.590;2024-01-15T20:27:01;33.03;;;18.63;;
72949;SDS011;64868;45.710;9.590;2024-01-15T20:32:29;31.38;;;17.63;;
72949;SDS011;64868;45.710;9.590;2024-01-15T20:35:03;28.38;;;16.80;;
72949;SDS011;64868;45.710;9.590;2024-01-15T20:37:36;28.05;;;16.98;;
72949;SDS011;64868;45.710;9.590;2024-01-15T20:45:59;32.90;;;17.83;;
72949;SDS011;64868;45.710;9.590;2024-01-15T20:48:27;32.47;;;16.73;;
72949;SDS011;64868;45.710;9.590;2024-01-15T20:51:00;31.08;;;17.63;;
72949;SDS011;64868;45.710;9.590;2024-01-15T20:53:34;29.63;;;16.85;;
72949;SDS011;64868;45.710;9.590;2024-01-15T20:56:00;27.65;;;16.08;;
72949;SDS011;64868;45.710;9.590;2024-01-15T20:58:42;26.83;;;16.70;;
72949;SDS011;64868;45.710;9.590;2024-01-15T21:01:21;34.30;;;18.30;;
72949;SDS011;64868;45.710;9.590;2024-01-15T21:09:31;33.92;;;19.60;;
72949;SDS011;64868;45.710;9.590;2024-01-15T21:14:59;35.92;;;19.95;;
72949;SDS011;64868;45.710;9.590;2024-01-15T21:26:11;37.17;;;20.30;;
72949;SDS011;64868;45.710;9.590;2024-01-15T21:31:40;39.13;;;19.35;;
72949;SDS011;64868;45.710;9.590;2024-01-15T21:34:15;37.28;;;20.45;;